Latest Weather Observations for Longerenong

IDV60801

Issued at 6:32 pm EDT Wednesday 25 November 2020 (issued every 10 minutes, with the page automatically refreshed every 10 minutes)

About weather observations | Map of weather stations | Latest weather observations for VIC | Other Formats
Station Details ID: 079028 Name: LONGERENONG Lat: -36.67 Lon: 142.30 Height: 133.0 m
Data from the previous 72 hours. | See also: Recent months at Longerenong
Date/Time
EDT
Temp
°C
App
Temp
°C
Dew
Point
°C
Rel
Hum
%
Delta-T
°C
Wind Press
QNH
hPa
Press
MSL
hPa
Rain since
9am
mm
Dir  Spd
km/h
Gust
km/h
Spd
kts
Gust
kts
25/06:30pm 32.2 27.8 6.4 20 14.0 W 19 30 10 16 - - 0.0
25/06:00pm 32.8 29.1 6.2 19 14.4 WNW 15 22 8 12 - - 0.0
25/05:30pm 33.0 28.4 6.3 19 14.5 W 20 33 11 18 - - 0.0
25/05:00pm 33.3 28.5 7.3 20 14.4 W 22 35 12 19 - - 0.0
25/04:30pm 33.3 29.8 8.7 22 13.9 W 17 30 9 16 - - 0.0
25/04:00pm 32.4 28.9 8.6 23 13.4 WNW 17 32 9 17 - - 0.0
25/03:30pm 32.3 28.5 9.2 24 13.1 WNW 19 35 10 19 - - 0.0
25/03:00pm 31.4 28.3 10.2 27 12.2 W 17 28 9 15 - - 0.0
25/02:30pm 31.8 28.4 10.5 27 12.3 WNW 19 28 10 15 - - 0.0
25/02:00pm 30.6 28.1 11.1 30 11.3 NW 15 32 8 17 - - 0.0
25/01:30pm 30.2 27.6 10.7 30 11.2 WNW 15 30 8 16 - - 0.0
25/01:00pm 28.8 25.6 10.0 31 10.6 NW 17 28 9 15 - - 0.0
25/12:30pm 27.8 24.8 10.5 34 9.8 NNW 17 28 9 15 - - 0.0
25/12:00pm 26.6 23.6 10.7 37 9.0 NW 17 28 9 15 - - 0.0
25/11:30am 26.5 24.1 11.4 39 8.6 NNW 15 24 8 13 - - 0.0
25/11:00am 25.5 23.2 11.7 42 7.9 NNW 15 24 8 13 - - 0.0
25/10:30am 24.5 22.2 11.8 45 7.2 NNW 15 24 8 13 - - 0.0
25/10:00am 22.4 20.3 11.2 49 6.3 NNW 13 20 7 11 - - 0.0
25/09:30am 21.2 18.7 11.2 53 5.6 NNW 15 24 8 13 - - 0.0
25/09:00am 20.7 18.7 11.6 56 5.1 N 13 20 7 11 - - 0.0
25/08:30am 19.1 18.4 12.1 64 3.9 NNE 7 13 4 7 - - 0.0
25/08:00am 16.8 16.4 12.3 75 2.5 ENE 6 7 3 4 - - 0.0
25/07:30am 15.3 15.4 12.6 84 1.5 E 4 6 2 3 - - 0.0
25/07:00am 13.7 13.3 12.3 91 0.8 ENE 6 7 3 4 - - 0.0
25/06:30am 12.4 11.9 11.9 97 0.3 E 6 6 3 3 - - 0.0
25/06:00am 12.1 11.5 11.6 97 0.3 E 6 6 3 3 - - 0.0
25/05:30am 11.8 11.1 11.5 98 0.2 SSW 6 7 3 4 - - 0.0
25/05:00am 10.7 10.6 9.6 93 0.6 CALM 0 0 0 0 - - 0.0
25/04:30am 10.6 10.3 8.7 88 0.9 CALM 0 0 0 0 - - 0.0
25/04:00am 10.9 10.6 8.7 86 1.1 CALM 0 0 0 0 - - 0.0
25/03:30am 11.9 11.3 9.1 83 1.4 SSW 2 4 1 2 - - 0.0
25/03:00am 12.2 12.0 9.0 81 1.6 CALM 0 0 0 0 - - 0.0
25/02:30am 11.9 10.9 8.9 82 1.5 SSW 4 4 2 2 - - 0.0
25/02:00am 12.3 10.8 9.0 80 1.7 SW 7 9 4 5 - - 0.0
25/01:30am 12.5 11.1 8.8 78 1.9 SW 6 7 3 4 - - 0.0
25/01:00am 13.0 11.6 8.9 76 2.1 SW 6 6 3 3 - - 0.0
25/12:30am 13.5 11.6 9.0 74 2.3 SW 9 9 5 5 - - 0.0
25/12:00am 13.8 12.8 8.8 72 2.5 SW 4 6 2 3 - - 0.0
 
Date/Time
EDT
Temp
°C
App
Temp
°C
Dew
Point
°C
Rel
Hum
%
Delta-T
°C
Wind Press
QNH
hPa
Press
MSL
hPa
Rain since
9am
mm
Dir  Spd
km/h
Gust
km/h
Spd
kts
Gust
kts
24/11:30pm 14.4 13.0 9.0 70 2.8 SSW 6 7 3 4 - - 0.0
24/11:00pm 15.6 14.1 9.1 65 3.4 SW 7 9 4 5 - - 0.0
24/10:30pm 16.6 14.7 9.1 61 3.9 SSW 9 11 5 6 - - 0.0
24/10:00pm 17.4 15.3 9.6 60 4.1 SSW 11 13 6 7 - - 0.0
24/09:30pm 17.8 16.2 10.2 61 4.1 SSW 9 11 5 6 - - 0.0
24/09:00pm 18.9 17.2 9.9 56 4.8 SSW 9 13 5 7 - - 0.0
24/08:30pm 20.2 18.5 9.7 51 5.6 SW 9 15 5 8 - - 0.0
24/08:00pm 21.8 19.7 9.7 46 6.6 SW 11 15 6 8 - - 0.0
24/07:30pm 23.3 20.4 9.7 42 7.4 SW 15 22 8 12 - - 0.0
24/07:00pm 23.8 20.5 9.4 40 7.9 SW 17 22 9 12 - - 0.0
24/06:30pm 23.9 20.2 9.5 40 7.9 SW 19 28 10 15 - - 0.0
24/06:00pm 24.2 20.9 9.4 39 8.1 SW 17 26 9 14 - - 0.0
24/05:30pm 25.5 21.8 9.3 36 8.9 SW 19 28 10 15 - - 0.0
24/05:00pm 24.5 21.4 8.9 37 8.5 SSW 15 24 8 13 - - 0.0
24/04:30pm 24.7 21.2 8.6 36 8.7 SSW 17 26 9 14 - - 0.0
24/04:00pm 24.6 20.9 8.1 35 8.8 SW 17 30 9 16 - - 0.0
24/03:30pm 24.4 20.7 8.0 35 8.8 SW 17 28 9 15 - - 0.0
24/03:00pm 24.8 20.6 8.3 35 8.9 WSW 20 30 11 16 - - 0.0
24/02:30pm 24.8 21.3 8.7 36 8.7 SW 17 28 9 15 - - 0.0
24/02:00pm 23.5 19.6 8.8 39 7.9 SW 19 26 10 14 - - 0.0
24/01:30pm 23.0 19.5 8.7 40 7.7 SW 17 26 9 14 - - 0.0
24/01:00pm 21.3 19.0 8.9 45 6.6 SW 11 20 6 11 - - 0.0
24/12:30pm 20.6 17.6 9.2 48 6.1 SW 15 26 8 14 - - 0.0
24/12:00pm 20.4 17.3 9.0 48 6.1 WSW 15 26 8 14 - - 0.0
24/11:30am 19.3 15.9 9.2 52 5.4 S 17 24 9 13 - - 0.0
24/11:00am 18.4 15.5 9.7 57 4.6 WSW 15 24 8 13 - - 0.0
24/10:30am 17.2 14.3 9.6 61 4.0 WSW 15 22 8 12 - - 0.0
24/10:00am 16.1 13.4 9.1 63 3.6 WSW 13 17 7 9 - - 0.0
24/09:30am 15.8 14.0 9.5 66 3.3 SSW 9 15 5 8 - - 0.0
24/09:00am 14.4 11.8 9.2 71 2.7 SW 13 17 7 9 - - 0.0
24/08:30am 13.8 11.7 9.6 76 2.2 SSW 11 15 6 8 - - 0.0
24/08:00am 12.9 11.3 10.1 83 1.5 SW 9 15 5 8 - - 0.0
24/07:30am 12.0 10.9 9.9 87 1.1 SW 6 13 3 7 - - 0.0
24/07:00am 11.2 10.9 10.0 92 0.6 SW 2 6 1 3 - - 0.0
24/06:30am 10.0 8.5 9.2 95 0.4 SW 7 11 4 6 - - 0.0
24/06:00am 8.4 6.3 8.1 98 0.1 SW 9 11 5 6 - - 0.0
24/05:30am 8.0 6.8 8.0 100 0.0 SW 4 6 2 3 - - 0.0
24/05:00am 7.4 5.4 7.3 99 0.0 SW 7 9 4 5 - - 0.0
24/04:30am 7.7 6.0 7.4 98 0.1 SW 6 7 3 4 - - 0.0
24/04:00am 7.4 5.5 6.8 96 0.3 SW 6 6 3 3 - - 0.0
24/03:30am 8.2 6.5 7.6 96 0.3 SW 6 7 3 4 - - 0.0
24/03:00am 8.5 6.7 8.1 97 0.2 SSW 7 9 4 5 - - 0.0
24/02:30am 9.4 7.8 8.8 96 0.3 SSW 7 11 4 6 - - 0.0
24/02:00am 9.5 8.1 8.7 95 0.4 SSW 6 7 3 4 - - 0.0
24/01:30am 10.8 8.2 9.4 91 0.7 SSW 13 17 7 9 - - 0.0
24/01:00am 11.2 9.1 9.8 91 0.7 S 11 17 6 9 - - 0.0
24/12:30am 11.2 9.1 9.8 91 0.7 SSW 11 15 6 8 - - 0.0
24/12:00am 11.8 10.1 9.7 87 1.1 SSW 9 13 5 7 - - 0.0
 
Date/Time
EDT
Temp
°C
App
Temp
°C
Dew
Point
°C
Rel
Hum
%
Delta-T
°C
Wind Press
QNH
hPa
Press
MSL
hPa
Rain since
9am
mm
Dir  Spd
km/h
Gust
km/h
Spd
kts
Gust
kts
23/11:30pm 12.9 10.1 10.1 83 1.5 SSW 15 22 8 12 - - 0.0
23/11:00pm 12.5 10.3 9.5 82 1.5 SSW 11 17 6 9 - - 0.0
23/10:30pm 13.9 11.7 9.3 74 2.4 S 11 13 6 7 - - 0.0
23/10:00pm 14.8 11.8 9.2 69 2.9 S 15 24 8 13 - - 0.0
23/09:30pm 15.1 12.0 9.0 67 3.1 S 15 20 8 11 - - 0.0
23/09:00pm 15.9 12.5 9.1 64 3.5 S 17 22 9 12 - - 0.0
23/08:30pm 16.8 13.3 8.8 59 4.1 S 17 20 9 11 - - 0.0
23/08:00pm 18.1 14.2 8.7 54 4.9 S 19 28 10 15 - - 0.0
23/07:30pm 19.7 14.8 8.4 48 5.9 S 24 30 13 16 - - 0.0
23/07:00pm 20.6 15.8 8.9 47 6.2 SSW 24 33 13 18 - - 0.0
23/06:30pm 20.2 15.2 9.5 50 5.7 SSW 26 33 14 18 - - 0.0
23/06:00pm 22.1 16.5 8.9 43 7.1 SSW 28 39 15 21 - - 0.0
23/05:30pm 21.6 16.7 9.8 47 6.4 S 26 37 14 20 - - 0.0
23/05:00pm 23.1 18.4 10.5 45 7.0 S 26 39 14 21 - - 0.0
23/04:30pm 22.2 17.1 10.7 48 6.4 SSW 28 43 15 23 - - 0.0
23/04:00pm 21.3 16.0 11.3 53 5.6 SSW 30 39 16 21 - - 0.0
23/03:30pm 21.2 16.7 11.5 54 5.4 S 26 35 14 19 - - 0.0
23/03:00pm 20.6 17.0 11.8 57 4.9 SSW 22 33 12 18 - - 0.0
23/02:30pm 21.5 16.1 12.1 55 5.3 SSW 32 41 17 22 - - 0.0
23/02:00pm 19.8 16.2 11.8 60 4.5 SSW 22 33 12 18 - - 0.0
23/01:30pm 19.6 14.9 11.9 61 4.3 SSW 28 43 15 23 - - 0.0
23/01:00pm 20.0 15.8 12.5 62 4.2 SSW 26 35 14 19 - - 0.0
23/12:30pm 19.1 15.2 12.1 64 3.9 SSW 24 43 13 23 - - 0.0
23/12:00pm 18.7 14.2 12.7 68 3.4 SSW 28 39 15 21 - - 0.0
23/11:30am 16.6 13.0 12.9 79 2.1 SSW 24 33 13 18 - - 0.0
23/11:00am 16.1 11.9 13.6 85 1.4 SW 28 35 15 19 - - 0.0
23/10:30am 15.8 13.5 14.7 93 0.6 SSW 20 28 11 15 - - 0.0
23/10:00am 16.3 13.8 15.2 93 0.6 SW 22 32 12 17 - - 0.0
23/09:30am 16.7 13.8 15.2 91 0.9 SSW 24 35 13 19 - - 0.0
23/09:00am 17.4 15.4 16.4 94 0.6 SSW 22 33 12 18 - - 11.4
23/08:30am 17.5 15.9 16.5 94 0.6 SSW 20 26 11 14 - - 11.4
23/08:00am 17.6 16.0 16.6 94 0.6 SSW 20 30 11 16 - - 11.4
23/07:30am 18.3 17.8 17.7 96 0.4 SSW 17 26 9 14 - - 11.4
23/07:00am 18.1 18.9 18.1 100 0.0 SW 11 17 6 9 - - 11.4
23/06:30am 18.2 18.8 17.7 97 0.3 SW 11 17 6 9 - - 11.4
23/06:00am 18.1 18.8 17.9 99 0.1 WSW 11 17 6 9 - - 11.2
23/05:30am 17.6 19.4 17.4 99 0.1 WNW 4 6 2 3 - - 11.2
23/05:00am 18.5 20.7 18.3 99 0.1 W 4 7 2 4 - - 11.2
23/04:30am 18.7 20.1 18.7 100 0.0 W 9 11 5 6 - - 11.2
23/04:00am 18.9 20.4 18.9 100 0.0 WNW 9 13 5 7 - - 10.6
23/03:30am 18.7 21.1 18.7 100 0.0 WNW 4 4 2 2 - - 10.4
23/03:00am 18.9 21.3 18.9 100 0.0 WNW 4 6 2 3 - - 10.4
23/02:30am 19.0 20.9 19.0 100 0.0 W 7 9 4 5 - - 10.4
23/02:00am 19.1 20.9 18.4 96 0.4 WSW 6 7 3 4 - - 10.4
23/01:30am 19.4 20.3 18.4 94 0.6 WNW 11 24 6 13 - - 10.2
23/01:00am 19.2 20.1 18.5 96 0.4 N 11 20 6 11 - - 10.2
23/12:30am 19.1 20.4 18.4 96 0.4 N 9 15 5 8 - - 10.0
23/12:00am 18.9 19.8 18.4 97 0.3 N 11 17 6 9 - - 10.0
 
Date/Time
EDT
Temp
°C
App
Temp
°C
Dew
Point
°C
Rel
Hum
%
Delta-T
°C
Wind Press
QNH
hPa
Press
MSL
hPa
Rain since
9am
mm
Dir  Spd
km/h
Gust
km/h
Spd
kts
Gust
kts
22/11:30pm 18.6 20.0 18.6 100 0.0 NE 9 15 5 8 - - 10.0
22/11:00pm 18.6 20.9 18.6 100 0.0 ENE 4 7 2 4 - - 9.6
22/10:30pm 18.8 21.5 18.6 99 0.1 E 2 6 1 3 - - 9.4
22/10:00pm 18.6 20.5 18.6 100 0.0 ESE 6 7 3 4 - - 9.2
22/09:30pm 18.5 20.1 18.3 99 0.1 E 7 11 4 6 - - 9.2
22/09:00pm 18.7 20.0 18.4 98 0.2 NE 9 13 5 7 - - 9.2
22/08:30pm 19.1 21.1 19.1 100 0.0 NNE 7 13 4 7 - - 9.2
22/08:00pm 18.9 21.0 18.9 100 0.0 NNW 6 7 3 4 - - 9.2
22/07:30pm 19.3 15.5 19.0 98 0.2 WNW 37 61 20 33 - - 7.8
22/07:20pm 22.1 21.0 17.7 76 2.7 NW 20 80 11 43 - - 3.0
22/07:00pm 26.1 25.6 15.8 53 6.3 NNW 13 24 7 13 - - 2.6

Other formats

Comma delimited format used in spreadsheet applications
http://www.bom.gov.au/fwo/IDV60801/IDV60801.95835.axf

JavaScript Object Notation format (JSON) in row-major order
http://www.bom.gov.au/fwo/IDV60801/IDV60801.95835.json

Data quality

Most of these data are generated automatically and are frequently updated. Quality checks on data are not normally performed. It is possible for incorrect values to appear. Refer to information at About Latest Weather Observations and please check the disclaimer before using these data.